Terminal Aerodrome Forecast
Issued by NWS Charleston, WV

Current Version | Previous Version | Graphics & Text | Print | Product List | Glossary On
Versions: 1 2 3 4 5 6 7 8 9 10 11 12 13 14 15 16 17 18 19 20 21 22 23 24 25 26
000
FTUS41 KRLX 070255 AAA
TAFHTS
TAF AMD
KHTS 070255Z 0703/0724 00000KT P6SM SKC
     FM070500 VRB03KT 5SM BR FEW035
     FM070600 00000KT 1 1/2SM BR SCT001
     FM070700 00000KT 1/2SM FG VV001
     FM071230 21003KT 4SM BR SCT001
     FM071300 21006KT P6SM SCT045
     FM072000 21008KT P6SM VCTS BKN040CB=

USA.gov is the U.S. government's official web portal to all federal, state and local government web resources and services.